createdAt,value
2022-11-29T00:03:01.349Z,483.14
2022-11-29T00:08:33.052Z,484.01
2022-11-29T00:14:04.865Z,484.01
2022-11-29T00:19:36.673Z,484.01
2022-11-29T00:25:08.177Z,484.01
2022-11-29T00:30:40.040Z,484.18
2022-11-29T00:36:12.026Z,484.36
2022-11-29T00:41:43.906Z,484.53
2022-11-29T00:47:15.582Z,484.88
2022-11-29T00:52:47.573Z,485.41
2022-11-29T00:58:19.799Z,485.58
2022-11-29T01:03:51.710Z,485.41
2022-11-29T01:09:23.651Z,485.41
2022-11-29T01:14:55.947Z,485.41
2022-11-29T01:20:28.211Z,485.41
2022-11-29T01:26:00.335Z,485.23
2022-11-29T01:31:32.177Z,485.23
2022-11-29T01:37:04.002Z,485.41
2022-11-29T01:42:35.785Z,485.23
2022-11-29T01:48:07.551Z,485.23
2022-11-29T01:53:39.405Z,485.41
2022-11-29T01:59:11.565Z,485.41
2022-11-29T02:04:43.752Z,485.75
2022-11-29T02:10:15.058Z,485.75
2022-11-29T02:15:46.891Z,485.75
2022-11-29T02:21:18.681Z,485.75
2022-11-29T02:26:50.544Z,485.93
2022-11-29T02:32:22.485Z,485.75
2022-11-29T02:37:54.376Z,485.75
2022-11-29T02:43:26.326Z,485.58
2022-11-29T02:48:58.453Z,485.58
2022-11-29T02:54:30.371Z,485.41
2022-11-29T03:00:02.548Z,485.58
2022-11-29T03:05:34.786Z,485.23
2022-11-29T03:11:06.435Z,484.88
2022-11-29T03:16:42.736Z,484.88
2022-11-29T03:22:10.725Z,484.53
2022-11-29T03:27:42.823Z,484.36
2022-11-29T03:33:14.777Z,484.36
2022-11-29T03:38:46.681Z,484.36
2022-11-29T03:44:19.189Z,484.01
2022-11-29T03:49:51.180Z,484.01
2022-11-29T03:55:22.957Z,484.01
2022-11-29T04:00:54.609Z,484.18
2022-11-29T04:06:26.658Z,483.83
2022-11-29T04:11:58.737Z,483.83
2022-11-29T04:17:30.746Z,483.83
2022-11-29T04:23:02.941Z,483.83
2022-11-29T04:28:35.238Z,484.01
2022-11-29T04:34:07.548Z,484.36
2022-11-29T04:39:45.873Z,484.18
2022-11-29T04:45:18.222Z,484.36
2022-11-29T04:50:50.277Z,484.36
2022-11-29T04:56:22.248Z,484.01
2022-11-29T05:01:54.267Z,483.83
2022-11-29T05:07:25.915Z,483.14
2022-11-29T05:12:57.785Z,482.61
2022-11-29T05:18:29.366Z,482.26
2022-11-29T05:24:01.232Z,481.92
2022-11-29T05:29:32.959Z,481.92
2022-11-29T05:35:05.011Z,481.65
2022-11-29T05:40:36.808Z,480.96
2022-11-29T05:46:08.665Z,480.96
2022-11-29T05:51:40.441Z,480.78
2022-11-29T05:57:12.071Z,480.61
2022-11-29T06:02:44.114Z,480.26
2022-11-29T06:08:15.811Z,480.08
2022-11-29T06:13:48.188Z,479.74
2022-11-29T06:19:20.242Z,479.74
2022-11-29T06:24:52.289Z,479.56
2022-11-29T06:30:24.665Z,479.39
2022-11-29T06:35:56.551Z,479.21
2022-11-29T06:41:28.420Z,478.86
2022-11-29T06:47:00.588Z,478.69
2022-11-29T06:52:32.343Z,478.51
2022-11-29T06:58:03.999Z,478.34
2022-11-29T07:03:41.781Z,477.99
2022-11-29T07:09:13.515Z,477.82
2022-11-29T07:14:45.854Z,477.56
2022-11-29T07:20:17.387Z,477.38
2022-11-29T07:25:49.154Z,477.03
2022-11-29T07:31:21.039Z,476.68
2022-11-29T07:36:58.777Z,476.51
2022-11-29T07:42:30.551Z,476.33
2022-11-29T07:48:02.389Z,476.16
2022-11-29T07:53:33.948Z,475.99
2022-11-29T07:59:06.094Z,475.81
2022-11-29T08:04:37.643Z,475.81
2022-11-29T08:10:09.591Z,475.64
2022-11-29T08:15:41.261Z,475.46
2022-11-29T08:21:13.349Z,475.11
2022-11-29T08:26:45.240Z,474.77
2022-11-29T08:34:38.648Z,474.42
2022-11-29T08:40:10.630Z,474.24
2022-11-29T08:45:42.545Z,473.89
2022-11-29T08:51:14.528Z,473.89
2022-11-29T09:02:17.728Z,473.55
2022-11-29T09:07:49.413Z,473.37
2022-11-29T09:13:21.168Z,473.02
2022-11-29T09:18:53.025Z,472.94
2022-11-29T09:24:24.810Z,472.41
2022-11-29T09:29:56.443Z,472.06
2022-11-29T09:35:28.188Z,471.89
2022-11-29T09:41:00.093Z,471.37
2022-11-29T09:46:31.598Z,471.72
2022-11-29T09:52:03.599Z,471.54
2022-11-29T09:57:35.443Z,471.54
2022-11-29T10:03:06.999Z,471.19
2022-11-29T10:08:38.964Z,471.02
2022-11-29T10:14:10.810Z,471.19
2022-11-29T10:19:42.625Z,471.02
2022-11-29T10:25:14.269Z,471.37
2022-11-29T10:30:46.133Z,471.72
2022-11-29T10:36:17.762Z,471.89
2022-11-29T10:41:49.622Z,471.89
2022-11-29T10:47:21.216Z,472.41
2022-11-29T10:52:57.173Z,472.59
2022-11-29T10:58:28.007Z,472.59
2022-11-29T11:03:57.081Z,472.59
2022-11-29T11:09:29.084Z,472.41
2022-11-29T11:15:01.057Z,472.24
2022-11-29T11:20:32.811Z,471.89
2022-11-29T11:26:04.783Z,471.89
2022-11-29T11:31:36.558Z,471.89
2022-11-29T11:37:08.364Z,471.72
2022-11-29T11:42:39.855Z,471.72
2022-11-29T11:48:12.083Z,471.54
2022-11-29T11:53:43.753Z,471.37
2022-11-29T11:59:15.533Z,471.19
2022-11-29T12:04:47.567Z,471.19
2022-11-29T12:10:18.977Z,470.84
2022-11-29T12:15:51.100Z,471.19
2022-11-29T12:21:22.745Z,470.67
2022-11-29T12:26:57.508Z,470.50
2022-11-29T12:32:26.433Z,470.50
2022-11-29T12:37:58.379Z,470.15
2022-11-29T12:43:30.224Z,470.15
2022-11-29T12:49:01.920Z,470.15
2022-11-29T12:54:33.694Z,469.97
2022-11-29T13:00:05.467Z,469.80
2022-11-29T13:05:37.380Z,469.62
2022-11-29T13:11:09.101Z,469.62
2022-11-29T13:16:41.122Z,469.10
2022-11-29T13:22:12.310Z,468.84
2022-11-29T13:27:43.787Z,468.84
2022-11-29T13:33:15.797Z,468.49
2022-11-29T13:38:47.392Z,468.32
2022-11-29T13:44:19.175Z,467.97
2022-11-29T13:49:50.923Z,467.62
2022-11-29T13:55:22.961Z,467.45
2022-11-29T14:00:54.842Z,467.27
2022-11-29T14:06:26.497Z,466.75
2022-11-29T14:11:58.068Z,466.58
2022-11-29T14:17:30.260Z,466.40
2022-11-29T14:23:02.164Z,466.40
2022-11-29T14:28:33.787Z,466.05
2022-11-29T14:34:05.472Z,465.88
2022-11-29T14:39:37.124Z,465.71
2022-11-29T14:45:09.383Z,465.53
2022-11-29T14:50:40.822Z,464.83
2022-11-29T14:56:12.618Z,464.75
2022-11-29T15:01:44.548Z,464.40
2022-11-29T15:07:16.355Z,464.23
2022-11-29T15:12:48.067Z,463.88
2022-11-29T15:18:19.817Z,463.88
2022-11-29T15:23:51.854Z,463.35
2022-11-29T15:29:23.541Z,463.35
2022-11-29T15:34:55.310Z,462.83
2022-11-29T15:40:27.078Z,462.31
2022-11-29T15:45:58.974Z,461.96
2022-11-29T15:51:30.577Z,461.79
2022-11-29T15:57:02.772Z,460.39
2022-11-29T16:02:34.750Z,459.96
2022-11-29T16:08:06.627Z,459.79
2022-11-29T16:13:38.505Z,459.61
2022-11-29T16:19:10.043Z,459.61
2022-11-29T16:24:41.923Z,459.44
2022-11-29T16:30:13.746Z,459.26
2022-11-29T16:35:45.620Z,458.92
2022-11-29T16:41:17.310Z,458.57
2022-11-29T16:46:49.082Z,458.74
2022-11-29T16:52:20.759Z,458.74
2022-11-29T16:57:52.563Z,458.57
2022-11-29T17:03:24.129Z,458.57
2022-11-29T17:08:55.787Z,458.04
2022-11-29T17:14:27.740Z,457.87
2022-11-29T17:19:59.427Z,457.87
2022-11-29T17:25:31.373Z,457.35
2022-11-29T17:31:03.208Z,457.35
2022-11-29T17:36:35.149Z,456.83
2022-11-29T17:42:06.512Z,456.48
2022-11-29T17:47:38.527Z,455.96
2022-11-29T17:53:10.371Z,455.35
2022-11-29T17:58:42.129Z,455.17
2022-11-29T18:04:13.903Z,455.00
2022-11-29T18:09:46.298Z,454.65
2022-11-29T18:15:18.055Z,454.65
2022-11-29T18:20:49.649Z,454.13
2022-11-29T18:26:21.618Z,453.96
2022-11-29T18:31:53.330Z,453.78
2022-11-29T18:37:54.437Z,453.26
2022-11-29T18:42:56.761Z,452.91
2022-11-29T18:48:28.293Z,452.56
2022-11-29T18:54:00.116Z,452.04
2022-11-29T18:59:32.245Z,451.87
2022-11-29T19:05:04.910Z,451.52
2022-11-29T19:10:36.843Z,451.52
2022-11-29T19:16:12.715Z,451.87
2022-11-29T19:21:40.707Z,451.87
2022-11-29T19:27:12.651Z,452.04
2022-11-29T19:32:44.286Z,451.52
2022-11-29T19:38:15.896Z,451.26
2022-11-29T19:43:47.839Z,450.74
2022-11-29T19:49:19.721Z,450.22
2022-11-29T19:54:51.733Z,450.39
2022-11-29T20:00:23.549Z,450.56
2022-11-29T20:05:55.664Z,450.22
2022-11-29T20:11:27.076Z,449.87
2022-11-29T20:16:59.331Z,449.87
2022-11-29T20:22:31.496Z,449.69
2022-11-29T20:28:03.141Z,449.17
2022-11-29T20:33:34.888Z,448.83
2022-11-29T20:39:06.637Z,448.83
2022-11-29T20:44:38.527Z,448.48
2022-11-29T20:50:10.345Z,447.96
2022-11-29T20:55:47.713Z,447.96
2022-11-29T21:01:13.689Z,447.26
2022-11-29T21:06:45.704Z,447.26
2022-11-29T21:12:17.679Z,447.17
2022-11-29T21:17:49.450Z,447.00
2022-11-29T21:23:21.377Z,446.65
2022-11-29T21:28:52.969Z,446.13
2022-11-29T21:34:24.669Z,446.13
2022-11-29T21:39:56.453Z,445.96
2022-11-29T21:45:28.398Z,446.30
2022-11-29T21:47:40.185Z,445.96
2022-11-29T21:53:11.969Z,446.30
2022-11-29T21:58:43.709Z,445.96
2022-11-29T22:04:15.319Z,445.61
2022-11-29T22:09:46.991Z,445.96
2022-11-29T22:15:24.123Z,445.96
2022-11-29T22:20:50.868Z,445.78
2022-11-29T22:26:22.388Z,445.96
2022-11-29T22:31:53.935Z,445.96
2022-11-29T22:37:25.792Z,445.96
2022-11-29T22:42:57.320Z,445.96
2022-11-29T22:53:58.650Z,445.96
2022-11-29T22:59:30.618Z,446.30
2022-11-29T23:05:02.160Z,446.13
2022-11-29T23:10:34.256Z,446.30
2022-11-29T23:16:06.132Z,446.30
2022-11-29T23:21:37.708Z,446.13
2022-11-29T23:27:09.280Z,446.30
2022-11-29T23:32:40.929Z,446.30
2022-11-29T23:38:12.540Z,446.48
2022-11-29T23:43:44.300Z,446.13
2022-11-29T23:49:16.246Z,446.48
2022-11-29T23:54:48.454Z,446.48
